sensor_id;sensor_type;location;lat;lon;timestamp;pressure;altitude;pressure_sealevel;temperature;humidity
4598;BME280;62772;48.646;8.906;2023-04-01T00:04:54;94953.94;;;6.07;100.00
4598;BME280;62772;48.646;8.906;2023-04-01T00:09:55;94959.38;;;5.93;100.00
4598;BME280;62772;48.646;8.906;2023-04-01T00:14:55;94951.28;;;6.16;100.00
4598;BME280;62772;48.646;8.906;2023-04-01T00:19:56;94954.06;;;6.20;100.00
4598;BME280;62772;48.646;8.906;2023-04-01T00:24:56;94962.78;;;6.29;100.00
4598;BME280;62772;48.646;8.906;2023-04-01T00:29:57;94951.25;;;6.33;100.00
4598;BME280;62772;48.646;8.906;2023-04-01T00:34:57;94944.84;;;6.34;100.00
4598;BME280;62772;48.646;8.906;2023-04-01T00:40:01;94967.03;;;6.04;100.00
4598;BME280;62772;48.646;8.906;2023-04-01T00:50:26;94949.84;;;6.27;100.00
4598;BME280;62772;48.646;8.906;2023-04-01T00:55:30;94950.00;;;5.96;100.00
4598;BME280;62772;48.646;8.906;2023-04-01T01:00:32;94953.75;;;6.12;100.00
4598;BME280;62772;48.646;8.906;2023-04-01T01:10:49;94956.13;;;5.96;100.00
4598;BME280;62772;48.646;8.906;2023-04-01T01:15:58;94956.59;;;5.98;100.00
4598;BME280;62772;48.646;8.906;2023-04-01T01:26:50;94971.38;;;5.91;100.00
4598;BME280;62772;48.646;8.906;2023-04-01T01:32:11;94971.22;;;6.13;100.00
4598;BME280;62772;48.646;8.906;2023-04-01T01:37:18;94966.56;;;6.02;100.00
4598;BME280;62772;48.646;8.906;2023-04-01T01:42:22;94955.16;;;6.18;100.00
4598;BME280;62772;48.646;8.906;2023-04-01T01:47:25;94963.44;;;5.91;100.00
4598;BME280;62772;48.646;8.906;2023-04-01T01:52:28;94957.06;;;6.01;100.00
4598;BME280;62772;48.646;8.906;2023-04-01T01:57:33;94957.66;;;5.80;100.00
4598;BME280;62772;48.646;8.906;2023-04-01T02:02:36;94949.09;;;6.01;100.00
4598;BME280;62772;48.646;8.906;2023-04-01T02:07:37;94959.38;;;5.93;100.00
4598;BME280;62772;48.646;8.906;2023-04-01T02:12:41;94957.06;;;6.01;100.00
4598;BME280;62772;48.646;8.906;2023-04-01T02:17:44;94968.44;;;6.01;100.00
4598;BME280;62772;48.646;8.906;2023-04-01T02:22:55;94955.97;;;5.84;100.00
4598;BME280;62772;48.646;8.906;2023-04-01T02:27:58;94963.41;;;5.82;100.00
4598;BME280;62772;48.646;8.906;2023-04-01T02:33:00;94963.63;;;6.03;100.00
4598;BME280;62772;48.646;8.906;2023-04-01T02:38:01;94957.19;;;6.04;100.00
4598;BME280;62772;48.646;8.906;2023-04-01T02:43:02;94966.22;;;5.94;100.00
4598;BME280;62772;48.646;8.906;2023-04-01T02:48:02;94952.19;;;5.85;100.00
4598;BME280;62772;48.646;8.906;2023-04-01T02:53:03;94946.28;;;5.79;100.00
4598;BME280;62772;48.646;8.906;2023-04-01T02:58:04;94954.72;;;5.73;100.00
4598;BME280;62772;48.646;8.906;2023-04-01T03:03:04;94953.63;;;5.82;100.00
4598;BME280;62772;48.646;8.906;2023-04-01T03:08:05;94968.38;;;5.49;100.00
4598;BME280;62772;48.646;8.906;2023-04-01T03:13:06;94958.13;;;5.56;100.00
4598;BME280;62772;48.646;8.906;2023-04-01T03:18:07;94959.84;;;5.60;100.00
4598;BME280;62772;48.646;8.906;2023-04-01T03:23:08;94950.63;;;5.58;100.00
4598;BME280;62772;48.646;8.906;2023-04-01T03:28:08;94957.97;;;5.61;100.00
4598;BME280;62772;48.646;8.906;2023-04-01T03:33:09;94956.56;;;5.63;100.00
4598;BME280;62772;48.646;8.906;2023-04-01T03:38:09;94964.50;;;5.55;100.00
4598;BME280;62772;48.646;8.906;2023-04-01T03:43:10;94957.97;;;5.61;100.00
4598;BME280;62772;48.646;8.906;2023-04-01T03:48:12;94956.41;;;5.51;100.00
4598;BME280;62772;48.646;8.906;2023-04-01T03:53:12;94950.47;;;5.63;100.00
4598;BME280;62772;48.646;8.906;2023-04-01T03:58:16;94942.38;;;5.59;100.00
4598;BME280;62772;48.646;8.906;2023-04-01T04:03:17;94943.50;;;5.58;100.00
4598;BME280;62772;48.646;8.906;2023-04-01T04:08:17;94937.56;;;5.70;100.00
4598;BME280;62772;48.646;8.906;2023-04-01T04:13:19;94935.84;;;5.66;100.00
4598;BME280;62772;48.646;8.906;2023-04-01T04:18:25;94940.53;;;5.60;100.00
4598;BME280;62772;48.646;8.906;2023-04-01T04:23:25;94952.28;;;5.01;100.00
4598;BME280;62772;48.646;8.906;2023-04-01T04:28:27;94941.22;;;5.08;100.00
4598;BME280;62772;48.646;8.906;2023-04-01T04:33:30;94945.16;;;5.45;100.00
4598;BME280;62772;48.646;8.906;2023-04-01T04:38:30;94937.34;;;5.14;100.00
4598;BME280;62772;48.646;8.906;2023-04-01T04:43:30;94952.63;;;5.17;100.00
4598;BME280;62772;48.646;8.906;2023-04-01T04:48:31;94953.72;;;5.25;100.00
4598;BME280;62772;48.646;8.906;2023-04-01T04:53:32;94947.03;;;5.19;100.00
4598;BME280;62772;48.646;8.906;2023-04-01T04:58:32;94935.84;;;5.48;100.00
4598;BME280;62772;48.646;8.906;2023-04-01T05:03:34;94939.13;;;5.54;100.00
4598;BME280;62772;48.646;8.906;2023-04-01T05:08:35;94940.03;;;5.58;100.00
4598;BME280;62772;48.646;8.906;2023-04-01T05:13:36;94924.31;;;5.61;100.00
4598;BME280;62772;48.646;8.906;2023-04-01T05:18:36;94922.59;;;5.66;100.00
4598;BME280;62772;48.646;8.906;2023-04-01T05:23:37;94926.19;;;5.70;100.00
4598;BME280;62772;48.646;8.906;2023-04-01T05:28:39;94925.88;;;5.62;100.00
4598;BME280;62772;48.646;8.906;2023-04-01T05:33:40;94913.41;;;5.54;100.00
4598;BME280;62772;48.646;8.906;2023-04-01T05:38:40;94916.22;;;5.58;100.00
4598;BME280;62772;48.646;8.906;2023-04-01T05:43:44;94911.41;;;5.60;100.00
4598;BME280;62772;48.646;8.906;2023-04-01T05:49:03;94907.63;;;5.78;100.00
4598;BME280;62772;48.646;8.906;2023-04-01T05:54:05;94907.94;;;5.86;100.00
4598;BME280;62772;48.646;8.906;2023-04-01T05:59:06;94901.72;;;5.90;100.00
4598;BME280;62772;48.646;8.906;2023-04-01T06:04:13;94896.41;;;5.99;100.00
4598;BME280;62772;48.646;8.906;2023-04-01T06:09:32;94890.81;;;6.01;100.00
4598;BME280;62772;48.646;8.906;2023-04-01T06:26:06;94902.03;;;5.89;100.00
4598;BME280;62772;48.646;8.906;2023-04-01T06:37:19;94899.22;;;5.94;100.00
4598;BME280;62772;48.646;8.906;2023-04-01T06:53:28;94906.84;;;5.95;100.00
4598;BME280;62772;48.646;8.906;2023-04-01T06:58:51;94898.44;;;6.11;100.00
4598;BME280;62772;48.646;8.906;2023-04-01T07:04:00;94912.44;;;6.20;100.00
4598;BME280;62772;48.646;8.906;2023-04-01T07:09:11;94907.75;;;6.17;100.00
4598;BME280;62772;48.646;8.906;2023-04-01T07:14:39;94903.34;;;6.30;100.00
4598;BME280;62772;48.646;8.906;2023-04-01T07:19:59;94913.19;;;6.38;100.00
4598;BME280;62772;48.646;8.906;2023-04-01T07:30:21;94906.00;;;6.30;100.00
4598;BME280;62772;48.646;8.906;2023-04-01T07:35:41;94910.22;;;6.31;100.00
4598;BME280;62772;48.646;8.906;2023-04-01T07:41:07;94913.94;;;6.39;100.00
4598;BME280;62772;48.646;8.906;2023-04-01T07:46:51;94918.00;;;6.36;100.00
4598;BME280;62772;48.646;8.906;2023-04-01T07:52:08;94911.91;;;6.44;100.00
4598;BME280;62772;48.646;8.906;2023-04-01T07:57:20;94928.72;;;6.48;100.00
4598;BME280;62772;48.646;8.906;2023-04-01T08:02:42;94929.50;;;6.49;100.00
4598;BME280;62772;48.646;8.906;2023-04-01T08:08:09;94932.16;;;6.58;100.00
4598;BME280;62772;48.646;8.906;2023-04-01T08:13:58;94944.97;;;6.47;100.00
4598;BME280;62772;48.646;8.906;2023-04-01T08:19:30;94942.75;;;6.58;100.00
4598;BME280;62772;48.646;8.906;2023-04-01T08:24:39;94946.53;;;6.48;100.00
4598;BME280;62772;48.646;8.906;2023-04-01T08:29:49;94949.13;;;6.57;100.00
4598;BME280;62772;48.646;8.906;2023-04-01T08:35:14;94952.59;;;6.48;100.00
4598;BME280;62772;48.646;8.906;2023-04-01T08:40:37;94954.94;;;6.59;100.00
4598;BME280;62772;48.646;8.906;2023-04-01T08:45:51;94961.00;;;6.50;100.00
4598;BME280;62772;48.646;8.906;2023-04-01T08:56:50;94952.91;;;6.47;100.00
4598;BME280;62772;48.646;8.906;2023-04-01T09:02:30;94945.72;;;6.56;100.00
4598;BME280;62772;48.646;8.906;2023-04-01T09:19:17;94959.03;;;6.86;100.00
4598;BME280;62772;48.646;8.906;2023-04-01T09:24:35;94959.19;;;6.81;100.00
4598;BME280;62772;48.646;8.906;2023-04-01T09:35:26;94976.63;;;6.99;100.00
4598;BME280;62772;48.646;8.906;2023-04-01T09:46:15;94984.94;;;7.19;100.00
4598;BME280;62772;48.646;8.906;2023-04-01T09:51:36;94987.34;;;7.12;100.00
4598;BME280;62772;48.646;8.906;2023-04-01T10:13:30;94986.81;;;7.27;100.00
4598;BME280;62772;48.646;8.906;2023-04-01T10:19:56;94988.81;;;7.30;100.00
4598;BME280;62772;48.646;8.906;2023-04-01T10:35:20;95005.13;;;7.50;100.00
4598;BME280;62772;48.646;8.906;2023-04-01T11:09:16;95012.03;;;7.93;100.00
4598;BME280;62772;48.646;8.906;2023-04-01T11:20:48;95015.06;;;8.04;100.00
4598;BME280;62772;48.646;8.906;2023-04-01T11:58:56;95034.31;;;8.22;100.00
4598;BME280;62772;48.646;8.906;2023-04-01T12:20:20;95037.88;;;8.47;100.00
4598;BME280;62772;48.646;8.906;2023-04-01T12:30:38;95051.03;;;8.22;100.00
4598;BME280;62772;48.646;8.906;2023-04-01T12:46:45;95055.28;;;8.44;100.00
4598;BME280;62772;48.646;8.906;2023-04-01T12:51:55;95056.25;;;8.61;100.00
4598;BME280;62772;48.646;8.906;2023-04-01T13:02:13;95068.97;;;8.34;100.00
4598;BME280;62772;48.646;8.906;2023-04-01T13:13:30;95065.97;;;8.57;100.00
4598;BME280;62772;48.646;8.906;2023-04-01T13:18:54;95070.00;;;8.42;100.00
4598;BME280;62772;48.646;8.906;2023-04-01T13:29:27;95083.63;;;8.61;100.00
4598;BME280;62772;48.646;8.906;2023-04-01T13:45:33;95075.78;;;8.23;100.00
4598;BME280;62772;48.646;8.906;2023-04-01T13:56:15;95077.19;;;8.41;100.00
4598;BME280;62772;48.646;8.906;2023-04-01T14:01:46;95082.03;;;8.48;100.00
4598;BME280;62772;48.646;8.906;2023-04-01T14:07:00;95084.16;;;8.55;100.00
4598;BME280;62772;48.646;8.906;2023-04-01T14:12:18;95081.34;;;8.84;100.00
4598;BME280;62772;48.646;8.906;2023-04-01T14:22:42;95096.66;;;8.33;100.00
4598;BME280;62772;48.646;8.906;2023-04-01T14:44:23;95099.81;;;8.68;100.00
4598;BME280;62772;48.646;8.906;2023-04-01T14:49:35;95093.28;;;8.24;100.00
4598;BME280;62772;48.646;8.906;2023-04-01T14:54:37;95104.31;;;8.34;100.00
4598;BME280;62772;48.646;8.906;2023-04-01T14:59:51;95104.72;;;8.24;100.00
4598;BME280;62772;48.646;8.906;2023-04-01T15:05:00;95105.34;;;8.42;100.00
4598;BME280;62772;48.646;8.906;2023-04-01T15:15:59;95108.56;;;8.57;100.00
4598;BME280;62772;48.646;8.906;2023-04-01T15:21:10;95107.91;;;8.60;100.00
4598;BME280;62772;48.646;8.906;2023-04-01T15:26:21;95127.19;;;8.57;100.00
4598;BME280;62772;48.646;8.906;2023-04-01T15:31:38;95132.09;;;8.67;100.00
4598;BME280;62772;48.646;8.906;2023-04-01T15:36:53;95141.03;;;8.41;100.00
4598;BME280;62772;48.646;8.906;2023-04-01T15:47:31;95163.91;;;8.63;100.00
4598;BME280;62772;48.646;8.906;2023-04-01T16:03:45;95148.88;;;8.16;100.00
4598;BME280;62772;48.646;8.906;2023-04-01T16:09:00;95148.75;;;8.34;100.00
4598;BME280;62772;48.646;8.906;2023-04-01T16:19:51;95141.84;;;8.63;100.00
4598;BME280;62772;48.646;8.906;2023-04-01T16:30:41;95145.75;;;8.65;100.00
4598;BME280;62772;48.646;8.906;2023-04-01T16:35:50;95147.31;;;8.15;100.00
4598;BME280;62772;48.646;8.906;2023-04-01T16:46:36;95155.63;;;8.35;100.00
4598;BME280;62772;48.646;8.906;2023-04-01T17:02:03;95155.09;;;8.50;100.00
4598;BME280;62772;48.646;8.906;2023-04-01T17:28:58;95177.84;;;8.39;100.00
4598;BME280;62772;48.646;8.906;2023-04-01T17:44:34;95199.22;;;8.22;100.00
4598;BME280;62772;48.646;8.906;2023-04-01T17:49:52;95216.63;;;8.10;100.00
4598;BME280;62772;48.646;8.906;2023-04-01T18:00:26;95229.63;;;8.03;100.00
4598;BME280;62772;48.646;8.906;2023-04-01T18:06:56;95261.91;;;7.19;100.00
4598;BME280;62772;48.646;8.906;2023-04-01T18:11:59;95273.38;;;6.53;100.00
4598;BME280;62772;48.646;8.906;2023-04-01T18:17:18;95278.06;;;6.57;100.00
4598;BME280;62772;48.646;8.906;2023-04-01T18:22:25;95269.19;;;6.61;100.00
4598;BME280;62772;48.646;8.906;2023-04-01T18:27:32;95268.31;;;6.92;100.00
4598;BME280;62772;48.646;8.906;2023-04-01T18:32:44;95278.44;;;7.07;100.00
4598;BME280;62772;48.646;8.906;2023-04-01T18:43:30;95287.66;;;6.93;100.00
4598;BME280;62772;48.646;8.906;2023-04-01T18:48:51;95293.28;;;7.00;100.00
4598;BME280;62772;48.646;8.906;2023-04-01T18:53:57;95285.75;;;6.76;100.00
4598;BME280;62772;48.646;8.906;2023-04-01T19:09:43;95293.28;;;6.91;100.00
4598;BME280;62772;48.646;8.906;2023-04-01T19:15:08;95295.00;;;6.29;100.00
4598;BME280;62772;48.646;8.906;2023-04-01T19:20:51;95299.13;;;6.53;100.00
4598;BME280;62772;48.646;8.906;2023-04-01T19:26:00;95289.63;;;6.61;100.00
4598;BME280;62772;48.646;8.906;2023-04-01T19:41:47;95297.00;;;6.90;100.00
4598;BME280;62772;48.646;8.906;2023-04-01T19:46:56;95287.81;;;6.87;100.00
4598;BME280;62772;48.646;8.906;2023-04-01T19:52:37;95313.56;;;5.67;100.00
4598;BME280;62772;48.646;8.906;2023-04-01T19:57:58;95304.41;;;5.73;100.00
4598;BME280;62772;48.646;8.906;2023-04-01T20:03:11;95310.06;;;5.57;100.00
4598;BME280;62772;48.646;8.906;2023-04-01T20:18:55;95329.16;;;6.22;100.00
4598;BME280;62772;48.646;8.906;2023-04-01T20:24:22;95338.31;;;6.16;100.00
4598;BME280;62772;48.646;8.906;2023-04-01T20:50:45;95378.78;;;6.70;100.00
4598;BME280;62772;48.646;8.906;2023-04-01T21:12:01;95381.94;;;6.10;100.00
4598;BME280;62772;48.646;8.906;2023-04-01T21:17:15;95378.72;;;6.22;100.00
4598;BME280;62772;48.646;8.906;2023-04-01T21:27:48;95382.09;;;6.05;100.00
4598;BME280;62772;48.646;8.906;2023-04-01T21:59:51;95411.44;;;5.72;100.00
4598;BME280;62772;48.646;8.906;2023-04-01T22:05:06;95416.09;;;5.89;100.00
4598;BME280;62772;48.646;8.906;2023-04-01T22:20:33;95420.09;;;6.00;100.00
4598;BME280;62772;48.646;8.906;2023-04-01T22:30:58;95435.16;;;5.77;100.00
4598;BME280;62772;48.646;8.906;2023-04-01T22:36:19;95430.09;;;5.67;100.00
4598;BME280;62772;48.646;8.906;2023-04-01T22:47:02;95420.25;;;5.81;100.00
4598;BME280;62772;48.646;8.906;2023-04-01T22:52:25;95435.16;;;5.77;100.00
4598;BME280;62772;48.646;8.906;2023-04-01T22:58:01;95442.66;;;5.24;100.00
4598;BME280;62772;48.646;8.906;2023-04-01T23:03:11;95438.94;;;5.25;100.00
4598;BME280;62772;48.646;8.906;2023-04-01T23:13:53;95446.41;;;5.23;100.00
4598;BME280;62772;48.646;8.906;2023-04-01T23:19:08;95455.41;;;4.95;100.00
4598;BME280;62772;48.646;8.906;2023-04-01T23:29:35;95457.75;;;4.96;100.00
4598;BME280;62772;48.646;8.906;2023-04-01T23:34:36;95462.28;;;5.09;100.00
4598;BME280;62772;48.646;8.906;2023-04-01T23:39:48;95465.59;;;4.87;100.00
4598;BME280;62772;48.646;8.906;2023-04-01T23:44:53;95475.19;;;4.83;100.00
4598;BME280;62772;48.646;8.906;2023-04-01T23:50:04;95481.00;;;4.85;100.00
4598;BME280;62772;48.646;8.906;2023-04-01T23:55:18;95483.44;;;4.96;100.00
